Estación Meteorológica Peña el Pijo (Robertgarden) [ 01/30/23 14:48:05 CET ]

Fecha Hora Presion(HPa) Temp (°C) Humedad % Rocio (°C) Viento ( m/s) Direccion Lluvia 1Hora(mm) Lluvia 24H(mm) LLuvia Total(mm)
2012-Aug-08 01:01:16 1016.100 18.5 60 10.6 1.5 ENE     176.12
2012-Aug-08 02:01:14 1016.000 16.8 62 9.5         176.12
2012-Aug-08 03:05:14 1015.600 14.8 68 8.9         176.12
2012-Aug-08 04:01:12 1015.300 13.4 73 8.6         176.12
2012-Aug-08 05:01:12 1015.200 12.8 76 8.7         176.12
2012-Aug-08 06:01:15 1015.400 12.1 78 8.4         176.12
2012-Aug-08 07:01:12 1015.600 11.6 80 8.3         176.12
2012-Aug-08 08:01:13 1015.700 11.8 82 8.8         176.12
2012-Aug-08 09:01:16 1016.100 15.8 73 11.0         176.12
2012-Aug-08 10:01:14 1016.000 21.1 58 12.5         176.12
2012-Aug-08 11:01:13 1016.200 23.8 48 12.1 2.1 E     176.12
2012-Aug-08 12:01:17 1016.800 25.3 44 12.1 1.5 NE     176.12
2012-Aug-08 13:01:13 1016.200 29.6 37 13.3 1.4 ENE     176.12
2012-Aug-08 14:01:11 1015.900 32.2 33 13.8 1.1 NE     176.12
2012-Aug-08 15:01:16 1015.500 32.9 31 13.6         176.12
2012-Aug-08 16:01:14 1015.100 33.3 31 13.9         176.12
2012-Aug-08 17:01:14 1014.800 33.0 28 12.0         176.12
2012-Aug-08 18:01:16 1015.300 32.2 33 13.8         176.12
2012-Aug-08 19:01:14 1016.200 28.5 37 12.3 2.0 ENE     176.12
2012-Aug-08 20:01:14 1016.400 27.8 41 13.4         176.12
2012-Aug-08 21:01:19 1015.500 26.5 42 12.5         176.12
2012-Aug-08 22:01:12 1016.100 25.1 44 11.9         176.12
2012-Aug-08 23:01:14 1017.100 21.9 54 12.1         176.12

Temperatura Máxima:33°    Temperatura Mínima:11°
Presión Máxima:1017.100 Hpa    Presión Mínima:1014.800 Hpa


Volver